Terminal Aerodrome Forecast
Issued by NWS Cleveland, OH

Home | Current Version | Previous Version | Graphics & Text | Print | Product List | Glossary On
Versions: 1 2 3 4 5 6 7 8 9 10 11 12 13 14 15 16 17 18 19 20 21 22 23 24 25 26 27 28 29 30
000
FTUS41 KCLE 101959 AAB
TAFCLE
TAF AMD
KCLE 101959Z 1020/1124 21015KT P6SM FEW030 OVC080
     FM110100 24011KT P6SM VCSH SCT025 OVC035
      TEMPO 1101/1104 SCT015 OVC030
     FM110400 25010KT 5SM -SN BR BKN019 OVC030
      TEMPO 1104/1107 2SM -SN
     FM111100 28006KT P6SM OVC020
     FM111600 23006KT P6SM OVC030
     FM111900 20008KT P6SM OVC060=

USA.gov is the U.S. government's official web portal to all federal, state and local government web resources and services.